sensor_id;sensor_type;location;lat;lon;timestamp;temperature;humidity
939;DHT22;456;53.584;9.968;2023-04-07T00:01:54;15.70;26.40
939;DHT22;456;53.584;9.968;2023-04-07T00:04:20;15.70;26.40
939;DHT22;456;53.584;9.968;2023-04-07T00:06:46;15.70;26.40
939;DHT22;456;53.584;9.968;2023-04-07T00:09:11;15.70;26.40
939;DHT22;456;53.584;9.968;2023-04-07T00:11:37;15.70;26.40
939;DHT22;456;53.584;9.968;2023-04-07T00:14:03;15.70;26.40
939;DHT22;456;53.584;9.968;2023-04-07T00:16:28;15.70;26.40
939;DHT22;456;53.584;9.968;2023-04-07T00:18:54;15.70;26.40
939;DHT22;456;53.584;9.968;2023-04-07T00:21:20;15.70;26.40
939;DHT22;456;53.584;9.968;2023-04-07T00:23:45;15.70;26.40
939;DHT22;456;53.584;9.968;2023-04-07T00:26:12;15.70;26.40
939;DHT22;456;53.584;9.968;2023-04-07T00:28:37;15.70;26.40
939;DHT22;456;53.584;9.968;2023-04-07T00:31:03;15.70;26.40
939;DHT22;456;53.584;9.968;2023-04-07T00:33:29;15.70;26.40
939;DHT22;456;53.584;9.968;2023-04-07T00:35:55;15.70;26.40
939;DHT22;456;53.584;9.968;2023-04-07T00:38:23;15.70;26.40
939;DHT22;456;53.584;9.968;2023-04-07T00:40:48;15.70;26.40
939;DHT22;456;53.584;9.968;2023-04-07T00:43:14;15.70;26.40
939;DHT22;456;53.584;9.968;2023-04-07T00:45:40;15.70;26.40
939;DHT22;456;53.584;9.968;2023-04-07T00:48:05;15.70;26.40
939;DHT22;456;53.584;9.968;2023-04-07T00:50:31;15.70;26.40
939;DHT22;456;53.584;9.968;2023-04-07T00:52:57;15.70;26.40
939;DHT22;456;53.584;9.968;2023-04-07T00:55:23;15.70;26.40
939;DHT22;456;53.584;9.968;2023-04-07T00:57:48;15.70;26.40
939;DHT22;456;53.584;9.968;2023-04-07T01:00:16;15.70;26.50
939;DHT22;456;53.584;9.968;2023-04-07T01:02:55;15.70;26.40
939;DHT22;456;53.584;9.968;2023-04-07T01:05:52;15.70;26.50
939;DHT22;456;53.584;9.968;2023-04-07T01:11:05;15.70;26.40
939;DHT22;456;53.584;9.968;2023-04-07T01:13:42;15.70;26.50
939;DHT22;456;53.584;9.968;2023-04-07T01:16:12;15.70;26.40
939;DHT22;456;53.584;9.968;2023-04-07T01:18:43;15.70;26.50
939;DHT22;456;53.584;9.968;2023-04-07T01:21:16;15.70;26.50
939;DHT22;456;53.584;9.968;2023-04-07T01:26:36;15.70;26.40
939;DHT22;456;53.584;9.968;2023-04-07T01:31:48;15.70;26.40
939;DHT22;456;53.584;9.968;2023-04-07T01:34:15;15.70;27.00
939;DHT22;456;53.584;9.968;2023-04-07T01:36:42;15.70;26.50
939;DHT22;456;53.584;9.968;2023-04-07T01:39:08;15.70;26.50
939;DHT22;456;53.584;9.968;2023-04-07T01:41:37;15.70;26.50
939;DHT22;456;53.584;9.968;2023-04-07T01:44:03;15.70;26.40
939;DHT22;456;53.584;9.968;2023-04-07T01:46:29;15.70;26.50
939;DHT22;456;53.584;9.968;2023-04-07T01:48:55;15.70;26.40
939;DHT22;456;53.584;9.968;2023-04-07T01:51:22;15.70;26.40
939;DHT22;456;53.584;9.968;2023-04-07T01:53:48;15.70;26.40
939;DHT22;456;53.584;9.968;2023-04-07T01:56:15;15.70;27.10
939;DHT22;456;53.584;9.968;2023-04-07T01:58:41;15.70;26.50
939;DHT22;456;53.584;9.968;2023-04-07T02:01:06;15.70;26.40
939;DHT22;456;53.584;9.968;2023-04-07T02:03:42;15.70;26.50
939;DHT22;456;53.584;9.968;2023-04-07T02:06:11;15.70;27.00
939;DHT22;456;53.584;9.968;2023-04-07T02:08:42;15.70;26.50
939;DHT22;456;53.584;9.968;2023-04-07T02:11:10;15.70;26.50
939;DHT22;456;53.584;9.968;2023-04-07T02:13:37;15.70;26.50
939;DHT22;456;53.584;9.968;2023-04-07T02:16:05;15.70;26.40
939;DHT22;456;53.584;9.968;2023-04-07T02:18:32;15.70;26.50
939;DHT22;456;53.584;9.968;2023-04-07T02:20:58;15.70;26.60
939;DHT22;456;53.584;9.968;2023-04-07T02:23:25;15.70;26.50
939;DHT22;456;53.584;9.968;2023-04-07T02:25:50;15.70;26.50
939;DHT22;456;53.584;9.968;2023-04-07T02:28:16;15.60;26.40
939;DHT22;456;53.584;9.968;2023-04-07T02:30:41;15.70;26.50
939;DHT22;456;53.584;9.968;2023-04-07T02:33:07;15.70;26.50
939;DHT22;456;53.584;9.968;2023-04-07T02:35:32;15.70;26.50
939;DHT22;456;53.584;9.968;2023-04-07T02:37:58;15.70;26.40
939;DHT22;456;53.584;9.968;2023-04-07T02:40:23;15.70;26.50
939;DHT22;456;53.584;9.968;2023-04-07T02:42:49;15.70;26.10
939;DHT22;456;53.584;9.968;2023-04-07T02:45:14;15.70;26.50
939;DHT22;456;53.584;9.968;2023-04-07T02:47:40;15.60;26.50
939;DHT22;456;53.584;9.968;2023-04-07T02:50:06;15.70;26.60
939;DHT22;456;53.584;9.968;2023-04-07T02:52:32;15.60;26.40
939;DHT22;456;53.584;9.968;2023-04-07T02:54:57;15.60;26.40
939;DHT22;456;53.584;9.968;2023-04-07T02:57:23;15.60;26.50
939;DHT22;456;53.584;9.968;2023-04-07T02:59:48;15.60;26.50
939;DHT22;456;53.584;9.968;2023-04-07T03:02:14;15.60;26.40
939;DHT22;456;53.584;9.968;2023-04-07T03:04:40;15.70;26.50
939;DHT22;456;53.584;9.968;2023-04-07T03:07:06;15.60;26.40
939;DHT22;456;53.584;9.968;2023-04-07T03:09:31;15.60;26.40
939;DHT22;456;53.584;9.968;2023-04-07T03:11:57;15.70;26.60
939;DHT22;456;53.584;9.968;2023-04-07T03:14:23;15.60;26.40
939;DHT22;456;53.584;9.968;2023-04-07T03:16:48;15.60;26.50
939;DHT22;456;53.584;9.968;2023-04-07T03:19:14;15.70;26.50
939;DHT22;456;53.584;9.968;2023-04-07T03:21:40;15.70;26.50
939;DHT22;456;53.584;9.968;2023-04-07T03:24:06;15.70;26.50
939;DHT22;456;53.584;9.968;2023-04-07T03:26:32;15.60;26.50
939;DHT22;456;53.584;9.968;2023-04-07T03:28:58;15.60;26.40
939;DHT22;456;53.584;9.968;2023-04-07T03:31:23;15.70;26.50
939;DHT22;456;53.584;9.968;2023-04-07T03:33:49;15.60;26.50
939;DHT22;456;53.584;9.968;2023-04-07T03:36:15;15.70;26.50
939;DHT22;456;53.584;9.968;2023-04-07T03:38:46;15.60;26.50
939;DHT22;456;53.584;9.968;2023-04-07T03:41:12;15.60;26.40
939;DHT22;456;53.584;9.968;2023-04-07T03:43:37;15.60;26.50
939;DHT22;456;53.584;9.968;2023-04-07T03:46:03;15.60;26.40
939;DHT22;456;53.584;9.968;2023-04-07T03:48:28;15.60;26.40
939;DHT22;456;53.584;9.968;2023-04-07T03:50:54;15.60;26.40
939;DHT22;456;53.584;9.968;2023-04-07T03:53:20;15.60;26.40
939;DHT22;456;53.584;9.968;2023-04-07T03:55:46;15.60;26.40
939;DHT22;456;53.584;9.968;2023-04-07T03:58:11;15.70;26.50
939;DHT22;456;53.584;9.968;2023-04-07T04:00:38;15.60;26.40
939;DHT22;456;53.584;9.968;2023-04-07T04:03:03;15.60;26.50
939;DHT22;456;53.584;9.968;2023-04-07T04:05:29;15.60;26.50
939;DHT22;456;53.584;9.968;2023-04-07T04:07:56;15.60;26.40
939;DHT22;456;53.584;9.968;2023-04-07T04:10:21;15.70;26.50
939;DHT22;456;53.584;9.968;2023-04-07T04:12:47;15.60;26.40
939;DHT22;456;53.584;9.968;2023-04-07T04:15:15;15.60;26.40
939;DHT22;456;53.584;9.968;2023-04-07T04:17:40;15.60;26.40
939;DHT22;456;53.584;9.968;2023-04-07T04:20:07;15.60;26.40
939;DHT22;456;53.584;9.968;2023-04-07T04:22:33;15.60;26.40
939;DHT22;456;53.584;9.968;2023-04-07T04:24:59;15.60;26.40
939;DHT22;456;53.584;9.968;2023-04-07T04:27:25;15.60;26.40
939;DHT22;456;53.584;9.968;2023-04-07T04:29:51;15.60;26.40
939;DHT22;456;53.584;9.968;2023-04-07T04:32:16;15.60;26.40
939;DHT22;456;53.584;9.968;2023-04-07T04:34:42;15.60;26.40
939;DHT22;456;53.584;9.968;2023-04-07T04:37:08;15.60;26.50
939;DHT22;456;53.584;9.968;2023-04-07T04:39:34;15.60;26.40
939;DHT22;456;53.584;9.968;2023-04-07T04:41:59;15.60;26.40
939;DHT22;456;53.584;9.968;2023-04-07T04:44:25;15.60;26.40
939;DHT22;456;53.584;9.968;2023-04-07T04:46:51;15.60;26.40
939;DHT22;456;53.584;9.968;2023-04-07T04:49:17;15.60;26.40
939;DHT22;456;53.584;9.968;2023-04-07T04:51:43;15.60;26.40
939;DHT22;456;53.584;9.968;2023-04-07T04:54:09;15.60;26.40
939;DHT22;456;53.584;9.968;2023-04-07T04:56:35;15.60;26.40
939;DHT22;456;53.584;9.968;2023-04-07T04:59:01;15.60;26.40
939;DHT22;456;53.584;9.968;2023-04-07T05:01:27;15.60;26.30
939;DHT22;456;53.584;9.968;2023-04-07T05:03:52;15.60;26.40
939;DHT22;456;53.584;9.968;2023-04-07T05:06:18;15.60;26.40
939;DHT22;456;53.584;9.968;2023-04-07T05:08:43;15.60;26.40
939;DHT22;456;53.584;9.968;2023-04-07T05:11:10;15.60;26.50
939;DHT22;456;53.584;9.968;2023-04-07T05:13:36;15.60;26.40
939;DHT22;456;53.584;9.968;2023-04-07T05:16:01;15.60;26.30
939;DHT22;456;53.584;9.968;2023-04-07T05:18:27;15.60;26.30
939;DHT22;456;53.584;9.968;2023-04-07T05:20:52;15.60;26.40
939;DHT22;456;53.584;9.968;2023-04-07T05:23:18;15.60;26.40
939;DHT22;456;53.584;9.968;2023-04-07T05:25:43;15.60;26.40
939;DHT22;456;53.584;9.968;2023-04-07T05:28:09;15.60;26.30
939;DHT22;456;53.584;9.968;2023-04-07T05:30:35;15.60;26.40
939;DHT22;456;53.584;9.968;2023-04-07T05:33:01;15.60;26.40
939;DHT22;456;53.584;9.968;2023-04-07T05:35:26;15.60;26.40
939;DHT22;456;53.584;9.968;2023-04-07T05:37:52;15.60;26.30
939;DHT22;456;53.584;9.968;2023-04-07T05:40:17;15.60;26.30
939;DHT22;456;53.584;9.968;2023-04-07T05:42:43;15.60;26.40
939;DHT22;456;53.584;9.968;2023-04-07T05:45:10;15.60;26.30
939;DHT22;456;53.584;9.968;2023-04-07T05:47:36;15.60;26.30
939;DHT22;456;53.584;9.968;2023-04-07T05:50:01;15.60;26.40
939;DHT22;456;53.584;9.968;2023-04-07T05:52:27;15.60;26.30
939;DHT22;456;53.584;9.968;2023-04-07T05:54:52;15.60;26.30
939;DHT22;456;53.584;9.968;2023-04-07T05:57:18;15.60;26.30
939;DHT22;456;53.584;9.968;2023-04-07T05:59:44;15.60;26.30
939;DHT22;456;53.584;9.968;2023-04-07T06:02:10;15.60;26.40
939;DHT22;456;53.584;9.968;2023-04-07T06:04:35;15.60;26.30
939;DHT22;456;53.584;9.968;2023-04-07T06:07:01;15.60;26.40
939;DHT22;456;53.584;9.968;2023-04-07T06:09:27;15.60;26.30
939;DHT22;456;53.584;9.968;2023-04-07T06:11:52;15.60;26.30
939;DHT22;456;53.584;9.968;2023-04-07T06:14:18;15.60;26.30
939;DHT22;456;53.584;9.968;2023-04-07T06:16:44;15.60;26.30
939;DHT22;456;53.584;9.968;2023-04-07T06:19:10;15.60;26.30
939;DHT22;456;53.584;9.968;2023-04-07T06:21:35;15.60;26.40
939;DHT22;456;53.584;9.968;2023-04-07T06:24:01;15.60;26.30
939;DHT22;456;53.584;9.968;2023-04-07T06:26:28;15.60;26.30
939;DHT22;456;53.584;9.968;2023-04-07T06:28:53;15.60;26.30
939;DHT22;456;53.584;9.968;2023-04-07T06:31:19;15.60;26.40
939;DHT22;456;53.584;9.968;2023-04-07T06:33:45;15.60;26.30
939;DHT22;456;53.584;9.968;2023-04-07T06:36:11;15.60;26.30
939;DHT22;456;53.584;9.968;2023-04-07T06:38:37;15.60;26.40
939;DHT22;456;53.584;9.968;2023-04-07T06:41:03;15.60;26.30
939;DHT22;456;53.584;9.968;2023-04-07T06:43:29;15.60;26.30
939;DHT22;456;53.584;9.968;2023-04-07T06:45:55;15.60;26.30
939;DHT22;456;53.584;9.968;2023-04-07T06:48:21;15.60;26.30
939;DHT22;456;53.584;9.968;2023-04-07T06:50:49;15.60;26.30
939;DHT22;456;53.584;9.968;2023-04-07T06:53:15;15.60;26.30
939;DHT22;456;53.584;9.968;2023-04-07T06:55:40;15.60;26.30
939;DHT22;456;53.584;9.968;2023-04-07T06:58:06;15.60;26.40
939;DHT22;456;53.584;9.968;2023-04-07T07:00:32;15.60;26.30
939;DHT22;456;53.584;9.968;2023-04-07T07:02:57;15.60;26.80
939;DHT22;456;53.584;9.968;2023-04-07T07:05:23;15.60;26.30
939;DHT22;456;53.584;9.968;2023-04-07T07:07:49;15.60;26.40
939;DHT22;456;53.584;9.968;2023-04-07T07:10:16;15.60;26.30
939;DHT22;456;53.584;9.968;2023-04-07T07:12:41;15.60;26.40
939;DHT22;456;53.584;9.968;2023-04-07T07:15:07;15.60;26.30
939;DHT22;456;53.584;9.968;2023-04-07T07:17:33;15.60;26.30
939;DHT22;456;53.584;9.968;2023-04-07T07:19:59;15.60;26.30
939;DHT22;456;53.584;9.968;2023-04-07T07:22:25;15.50;26.20
939;DHT22;456;53.584;9.968;2023-04-07T07:24:51;15.60;26.30
939;DHT22;456;53.584;9.968;2023-04-07T07:27:16;15.50;26.20
939;DHT22;456;53.584;9.968;2023-04-07T07:29:42;15.60;26.30
939;DHT22;456;53.584;9.968;2023-04-07T07:32:07;15.60;26.40
939;DHT22;456;53.584;9.968;2023-04-07T07:34:33;15.60;26.30
939;DHT22;456;53.584;9.968;2023-04-07T07:36:59;15.50;26.20
939;DHT22;456;53.584;9.968;2023-04-07T07:39:25;15.60;26.40
939;DHT22;456;53.584;9.968;2023-04-07T07:41:51;15.60;26.30
939;DHT22;456;53.584;9.968;2023-04-07T07:44:17;15.60;26.40
939;DHT22;456;53.584;9.968;2023-04-07T07:46:44;15.50;26.30
939;DHT22;456;53.584;9.968;2023-04-07T07:49:10;15.60;26.30
939;DHT22;456;53.584;9.968;2023-04-07T07:51:36;15.60;26.30
939;DHT22;456;53.584;9.968;2023-04-07T07:54:02;15.60;26.30
939;DHT22;456;53.584;9.968;2023-04-07T07:56:27;15.50;26.30
939;DHT22;456;53.584;9.968;2023-04-07T07:58:53;15.60;26.30
939;DHT22;456;53.584;9.968;2023-04-07T08:01:19;15.60;26.40
939;DHT22;456;53.584;9.968;2023-04-07T08:03:46;15.60;26.40
939;DHT22;456;53.584;9.968;2023-04-07T08:06:11;15.50;26.20
939;DHT22;456;53.584;9.968;2023-04-07T08:08:37;15.50;26.80
939;DHT22;456;53.584;9.968;2023-04-07T08:11:03;15.50;26.30
939;DHT22;456;53.584;9.968;2023-04-07T08:13:28;15.60;26.30
939;DHT22;456;53.584;9.968;2023-04-07T08:15:54;15.60;26.30
939;DHT22;456;53.584;9.968;2023-04-07T08:18:19;15.50;26.20
939;DHT22;456;53.584;9.968;2023-04-07T08:20:45;15.60;26.30
939;DHT22;456;53.584;9.968;2023-04-07T08:23:11;15.60;26.30
939;DHT22;456;53.584;9.968;2023-04-07T08:25:37;15.50;26.20
939;DHT22;456;53.584;9.968;2023-04-07T08:28:04;15.50;26.30
939;DHT22;456;53.584;9.968;2023-04-07T08:30:30;15.50;26.20
939;DHT22;456;53.584;9.968;2023-04-07T08:32:56;15.50;26.20
939;DHT22;456;53.584;9.968;2023-04-07T08:35:22;15.60;26.30
939;DHT22;456;53.584;9.968;2023-04-07T08:37:47;15.50;26.30
939;DHT22;456;53.584;9.968;2023-04-07T08:40:14;15.60;26.40
939;DHT22;456;53.584;9.968;2023-04-07T08:42:41;15.50;26.30
939;DHT22;456;53.584;9.968;2023-04-07T08:45:08;15.50;26.20
939;DHT22;456;53.584;9.968;2023-04-07T08:47:35;15.50;26.20
939;DHT22;456;53.584;9.968;2023-04-07T08:50:04;15.50;26.20
939;DHT22;456;53.584;9.968;2023-04-07T08:52:49;15.60;26.40
939;DHT22;456;53.584;9.968;2023-04-07T08:55:17;15.50;26.40
939;DHT22;456;53.584;9.968;2023-04-07T08:57:43;15.50;26.30
939;DHT22;456;53.584;9.968;2023-04-07T09:00:11;15.60;26.30
939;DHT22;456;53.584;9.968;2023-04-07T09:02:39;15.50;26.30
939;DHT22;456;53.584;9.968;2023-04-07T09:05:07;15.50;26.20
939;DHT22;456;53.584;9.968;2023-04-07T09:07:34;15.50;26.30
939;DHT22;456;53.584;9.968;2023-04-07T09:10:00;15.50;26.20
939;DHT22;456;53.584;9.968;2023-04-07T09:12:27;15.50;26.20
939;DHT22;456;53.584;9.968;2023-04-07T09:14:53;15.60;26.40
939;DHT22;456;53.584;9.968;2023-04-07T09:17:20;15.50;26.40
939;DHT22;456;53.584;9.968;2023-04-07T09:19:46;15.50;26.40
939;DHT22;456;53.584;9.968;2023-04-07T09:22:12;15.50;26.20
939;DHT22;456;53.584;9.968;2023-04-07T09:24:39;15.50;26.40
939;DHT22;456;53.584;9.968;2023-04-07T09:27:16;15.50;26.80
939;DHT22;456;53.584;9.968;2023-04-07T09:29:46;15.50;26.30
939;DHT22;456;53.584;9.968;2023-04-07T09:32:15;15.50;26.30
939;DHT22;456;53.584;9.968;2023-04-07T09:34:58;15.50;26.30
939;DHT22;456;53.584;9.968;2023-04-07T09:37:24;15.50;26.40
939;DHT22;456;53.584;9.968;2023-04-07T09:39:51;15.50;26.40
939;DHT22;456;53.584;9.968;2023-04-07T09:42:19;15.50;26.40
939;DHT22;456;53.584;9.968;2023-04-07T09:44:46;15.50;26.40
939;DHT22;456;53.584;9.968;2023-04-07T09:47:11;15.50;26.30
939;DHT22;456;53.584;9.968;2023-04-07T09:49:51;15.50;26.40
939;DHT22;456;53.584;9.968;2023-04-07T09:52:18;15.50;26.50
939;DHT22;456;53.584;9.968;2023-04-07T09:54:45;15.50;26.50
939;DHT22;456;53.584;9.968;2023-04-07T09:57:12;15.50;26.40
939;DHT22;456;53.584;9.968;2023-04-07T09:59:43;15.50;26.40
939;DHT22;456;53.584;9.968;2023-04-07T10:02:10;15.50;26.50
939;DHT22;456;53.584;9.968;2023-04-07T10:04:36;15.50;26.50
939;DHT22;456;53.584;9.968;2023-04-07T10:07:02;15.50;26.40
939;DHT22;456;53.584;9.968;2023-04-07T10:09:29;15.50;26.50
939;DHT22;456;53.584;9.968;2023-04-07T10:11:56;15.50;26.50
939;DHT22;456;53.584;9.968;2023-04-07T10:14:26;15.50;26.40
939;DHT22;456;53.584;9.968;2023-04-07T10:16:52;15.50;26.40
939;DHT22;456;53.584;9.968;2023-04-07T10:19:19;15.50;26.40
939;DHT22;456;53.584;9.968;2023-04-07T10:21:49;15.50;26.50
939;DHT22;456;53.584;9.968;2023-04-07T10:27:17;15.50;26.50
939;DHT22;456;53.584;9.968;2023-04-07T10:29:46;15.50;26.50
939;DHT22;456;53.584;9.968;2023-04-07T10:32:13;15.50;26.50
939;DHT22;456;53.584;9.968;2023-04-07T10:37:15;15.50;26.50
939;DHT22;456;53.584;9.968;2023-04-07T10:40:12;15.50;26.50
939;DHT22;456;53.584;9.968;2023-04-07T10:45:12;15.50;26.50
939;DHT22;456;53.584;9.968;2023-04-07T10:50:23;15.50;27.10
939;DHT22;456;53.584;9.968;2023-04-07T10:53:05;15.50;26.50
939;DHT22;456;53.584;9.968;2023-04-07T10:55:39;15.50;26.50
939;DHT22;456;53.584;9.968;2023-04-07T10:58:24;15.50;26.50
939;DHT22;456;53.584;9.968;2023-04-07T11:03:25;15.50;27.20
939;DHT22;456;53.584;9.968;2023-04-07T11:05:51;15.50;26.60
939;DHT22;456;53.584;9.968;2023-04-07T11:08:34;15.50;26.50
939;DHT22;456;53.584;9.968;2023-04-07T11:10:59;15.50;26.60
939;DHT22;456;53.584;9.968;2023-04-07T11:13:26;15.50;26.50
939;DHT22;456;53.584;9.968;2023-04-07T11:15:52;15.50;26.60
939;DHT22;456;53.584;9.968;2023-04-07T11:18:19;15.50;26.60
939;DHT22;456;53.584;9.968;2023-04-07T11:20:56;15.50;27.20
939;DHT22;456;53.584;9.968;2023-04-07T11:23:23;15.50;26.60
939;DHT22;456;53.584;9.968;2023-04-07T11:25:51;15.50;26.60
939;DHT22;456;53.584;9.968;2023-04-07T11:28:17;15.50;26.70
939;DHT22;456;53.584;9.968;2023-04-07T11:30:51;15.50;26.50
939;DHT22;456;53.584;9.968;2023-04-07T11:33:29;15.50;26.60
939;DHT22;456;53.584;9.968;2023-04-07T11:38:29;15.50;26.60
939;DHT22;456;53.584;9.968;2023-04-07T11:41:09;15.50;26.70
939;DHT22;456;53.584;9.968;2023-04-07T11:43:35;15.50;26.70
939;DHT22;456;53.584;9.968;2023-04-07T11:46:08;15.50;26.60
939;DHT22;456;53.584;9.968;2023-04-07T11:48:37;15.50;26.60
939;DHT22;456;53.584;9.968;2023-04-07T11:51:03;15.50;26.70
939;DHT22;456;53.584;9.968;2023-04-07T11:53:33;15.50;26.70
939;DHT22;456;53.584;9.968;2023-04-07T11:58:28;15.50;27.20
939;DHT22;456;53.584;9.968;2023-04-07T12:00:55;15.50;26.70
939;DHT22;456;53.584;9.968;2023-04-07T12:03:21;15.50;26.70
939;DHT22;456;53.584;9.968;2023-04-07T12:05:47;15.50;26.60
939;DHT22;456;53.584;9.968;2023-04-07T12:08:13;15.50;26.70
939;DHT22;456;53.584;9.968;2023-04-07T12:10:41;15.50;27.20
939;DHT22;456;53.584;9.968;2023-04-07T12:13:07;15.50;26.70
939;DHT22;456;53.584;9.968;2023-04-07T12:15:34;15.50;27.20
939;DHT22;456;53.584;9.968;2023-04-07T12:18:01;15.40;26.60
939;DHT22;456;53.584;9.968;2023-04-07T12:20:28;15.40;26.60
939;DHT22;456;53.584;9.968;2023-04-07T12:22:53;15.40;26.60
939;DHT22;456;53.584;9.968;2023-04-07T12:25:19;15.40;26.70
939;DHT22;456;53.584;9.968;2023-04-07T12:27:45;15.50;26.70
939;DHT22;456;53.584;9.968;2023-04-07T12:30:11;15.40;26.60
939;DHT22;456;53.584;9.968;2023-04-07T12:32:37;15.40;26.60
939;DHT22;456;53.584;9.968;2023-04-07T12:35:03;15.40;26.60
939;DHT22;456;53.584;9.968;2023-04-07T12:37:29;15.50;26.70
939;DHT22;456;53.584;9.968;2023-04-07T12:39:56;15.40;26.70
939;DHT22;456;53.584;9.968;2023-04-07T12:42:21;15.40;26.70
939;DHT22;456;53.584;9.968;2023-04-07T12:44:47;15.40;26.60
939;DHT22;456;53.584;9.968;2023-04-07T12:47:12;15.50;26.70
939;DHT22;456;53.584;9.968;2023-04-07T12:49:38;15.40;26.70
939;DHT22;456;53.584;9.968;2023-04-07T12:52:04;15.40;27.20
939;DHT22;456;53.584;9.968;2023-04-07T12:54:31;15.40;26.70
939;DHT22;456;53.584;9.968;2023-04-07T12:56:56;15.40;26.70
939;DHT22;456;53.584;9.968;2023-04-07T12:59:22;15.40;26.70
939;DHT22;456;53.584;9.968;2023-04-07T13:01:48;15.40;26.70
939;DHT22;456;53.584;9.968;2023-04-07T13:04:14;15.40;26.80
939;DHT22;456;53.584;9.968;2023-04-07T13:06:40;15.40;26.80
939;DHT22;456;53.584;9.968;2023-04-07T13:09:05;15.40;26.70
939;DHT22;456;53.584;9.968;2023-04-07T13:11:31;15.50;26.80
939;DHT22;456;53.584;9.968;2023-04-07T13:13:56;15.40;26.90
939;DHT22;456;53.584;9.968;2023-04-07T13:16:22;15.40;26.70
939;DHT22;456;53.584;9.968;2023-04-07T13:18:47;15.40;26.70
939;DHT22;456;53.584;9.968;2023-04-07T13:21:13;15.40;26.70
939;DHT22;456;53.584;9.968;2023-04-07T13:23:39;15.40;26.80
939;DHT22;456;53.584;9.968;2023-04-07T13:26:04;15.40;26.80
939;DHT22;456;53.584;9.968;2023-04-07T13:28:30;15.40;26.80
939;DHT22;456;53.584;9.968;2023-04-07T13:30:55;15.40;26.80
939;DHT22;456;53.584;9.968;2023-04-07T13:33:21;15.40;26.70
939;DHT22;456;53.584;9.968;2023-04-07T13:35:47;15.40;26.80
939;DHT22;456;53.584;9.968;2023-04-07T13:38:12;15.40;26.70
939;DHT22;456;53.584;9.968;2023-04-07T13:40:38;15.40;26.80
939;DHT22;456;53.584;9.968;2023-04-07T13:43:03;15.40;26.80
939;DHT22;456;53.584;9.968;2023-04-07T13:45:29;15.40;26.80
939;DHT22;456;53.584;9.968;2023-04-07T13:47:54;15.40;26.80
939;DHT22;456;53.584;9.968;2023-04-07T13:50:20;15.40;26.80
939;DHT22;456;53.584;9.968;2023-04-07T13:52:45;15.40;26.80
939;DHT22;456;53.584;9.968;2023-04-07T13:55:11;15.40;26.80
939;DHT22;456;53.584;9.968;2023-04-07T13:57:37;15.40;26.80
939;DHT22;456;53.584;9.968;2023-04-07T14:00:03;15.40;26.80
939;DHT22;456;53.584;9.968;2023-04-07T14:02:29;15.40;26.80
939;DHT22;456;53.584;9.968;2023-04-07T14:04:55;15.40;26.80
939;DHT22;456;53.584;9.968;2023-04-07T14:07:21;15.40;26.80
939;DHT22;456;53.584;9.968;2023-04-07T14:09:47;15.40;26.80
939;DHT22;456;53.584;9.968;2023-04-07T14:12:13;15.40;26.80
939;DHT22;456;53.584;9.968;2023-04-07T14:14:39;15.40;26.80
939;DHT22;456;53.584;9.968;2023-04-07T14:17:04;15.40;26.80
939;DHT22;456;53.584;9.968;2023-04-07T14:19:30;15.40;26.80
939;DHT22;456;53.584;9.968;2023-04-07T14:21:57;15.40;26.90
939;DHT22;456;53.584;9.968;2023-04-07T14:24:23;15.40;26.80
939;DHT22;456;53.584;9.968;2023-04-07T14:26:48;15.40;26.80
939;DHT22;456;53.584;9.968;2023-04-07T14:29:15;15.40;26.80
939;DHT22;456;53.584;9.968;2023-04-07T14:31:41;15.40;26.80
939;DHT22;456;53.584;9.968;2023-04-07T14:34:07;15.40;26.80
939;DHT22;456;53.584;9.968;2023-04-07T14:36:33;15.40;26.80
939;DHT22;456;53.584;9.968;2023-04-07T14:38:59;15.40;26.80
939;DHT22;456;53.584;9.968;2023-04-07T14:41:25;15.40;26.80
939;DHT22;456;53.584;9.968;2023-04-07T14:43:51;15.40;26.80
939;DHT22;456;53.584;9.968;2023-04-07T14:46:23;15.40;26.80
939;DHT22;456;53.584;9.968;2023-04-07T14:48:50;15.40;26.90
939;DHT22;456;53.584;9.968;2023-04-07T14:51:19;15.40;26.80
939;DHT22;456;53.584;9.968;2023-04-07T14:53:45;15.40;26.80
939;DHT22;456;53.584;9.968;2023-04-07T14:56:12;15.40;26.80
939;DHT22;456;53.584;9.968;2023-04-07T14:58:37;15.40;26.80
939;DHT22;456;53.584;9.968;2023-04-07T15:01:05;15.40;26.80
939;DHT22;456;53.584;9.968;2023-04-07T15:03:30;15.40;26.80
939;DHT22;456;53.584;9.968;2023-04-07T15:05:56;15.40;26.80
939;DHT22;456;53.584;9.968;2023-04-07T15:08:22;15.40;26.90
939;DHT22;456;53.584;9.968;2023-04-07T15:10:48;15.40;26.80
939;DHT22;456;53.584;9.968;2023-04-07T15:13:13;15.40;26.80
939;DHT22;456;53.584;9.968;2023-04-07T15:15:39;15.40;26.80
939;DHT22;456;53.584;9.968;2023-04-07T15:18:04;15.40;26.90
939;DHT22;456;53.584;9.968;2023-04-07T15:20:30;15.40;26.80
939;DHT22;456;53.584;9.968;2023-04-07T15:22:56;15.40;26.80
939;DHT22;456;53.584;9.968;2023-04-07T15:25:21;15.40;26.80
939;DHT22;456;53.584;9.968;2023-04-07T15:27:48;15.40;26.90
939;DHT22;456;53.584;9.968;2023-04-07T15:30:13;15.40;26.80
939;DHT22;456;53.584;9.968;2023-04-07T15:32:39;15.40;26.90
939;DHT22;456;53.584;9.968;2023-04-07T15:35:05;15.40;26.90
939;DHT22;456;53.584;9.968;2023-04-07T15:37:31;15.40;26.90
939;DHT22;456;53.584;9.968;2023-04-07T15:39:57;15.40;26.90
939;DHT22;456;53.584;9.968;2023-04-07T15:42:22;15.40;26.90
939;DHT22;456;53.584;9.968;2023-04-07T15:44:49;15.40;26.90
939;DHT22;456;53.584;9.968;2023-04-07T15:47:14;15.40;26.90
939;DHT22;456;53.584;9.968;2023-04-07T15:49:40;15.40;26.80
939;DHT22;456;53.584;9.968;2023-04-07T15:52:06;15.40;26.90
939;DHT22;456;53.584;9.968;2023-04-07T15:54:32;15.40;26.90
939;DHT22;456;53.584;9.968;2023-04-07T15:56:58;15.40;26.90
939;DHT22;456;53.584;9.968;2023-04-07T15:59:23;15.40;26.90
939;DHT22;456;53.584;9.968;2023-04-07T16:01:49;15.40;26.90
939;DHT22;456;53.584;9.968;2023-04-07T16:04:15;15.40;26.90
939;DHT22;456;53.584;9.968;2023-04-07T16:06:41;15.40;26.80
939;DHT22;456;53.584;9.968;2023-04-07T16:09:07;15.40;26.80
939;DHT22;456;53.584;9.968;2023-04-07T16:11:32;15.40;26.90
939;DHT22;456;53.584;9.968;2023-04-07T16:13:58;15.40;26.90
939;DHT22;456;53.584;9.968;2023-04-07T16:16:23;15.40;26.90
939;DHT22;456;53.584;9.968;2023-04-07T16:18:49;15.40;26.90
939;DHT22;456;53.584;9.968;2023-04-07T16:21:16;15.40;26.90
939;DHT22;456;53.584;9.968;2023-04-07T16:23:41;15.40;26.90
939;DHT22;456;53.584;9.968;2023-04-07T16:26:07;15.40;26.90
939;DHT22;456;53.584;9.968;2023-04-07T16:28:33;15.40;26.90
939;DHT22;456;53.584;9.968;2023-04-07T16:30:58;15.40;26.90
939;DHT22;456;53.584;9.968;2023-04-07T16:33:24;15.40;26.90
939;DHT22;456;53.584;9.968;2023-04-07T16:35:50;15.40;26.90
939;DHT22;456;53.584;9.968;2023-04-07T16:38:15;15.40;26.90
939;DHT22;456;53.584;9.968;2023-04-07T16:40:45;15.40;26.90
939;DHT22;456;53.584;9.968;2023-04-07T16:43:11;15.40;26.90
939;DHT22;456;53.584;9.968;2023-04-07T16:45:37;15.40;26.90
939;DHT22;456;53.584;9.968;2023-04-07T16:48:03;15.40;26.90
939;DHT22;456;53.584;9.968;2023-04-07T16:50:28;15.40;26.90
939;DHT22;456;53.584;9.968;2023-04-07T16:52:54;15.40;26.90
939;DHT22;456;53.584;9.968;2023-04-07T16:55:22;15.40;26.90
939;DHT22;456;53.584;9.968;2023-04-07T16:57:48;15.40;26.90